createdAt,value
2018-12-16T00:00:28.363Z,-1.60
2018-12-16T00:04:30.697Z,-1.70
2018-12-16T00:08:33.035Z,-0.90
2018-12-16T00:12:36.961Z,-1.10
2018-12-16T00:16:40.617Z,-0.10
2018-12-16T00:20:42.978Z,-0.70
2018-12-16T00:24:45.392Z,-0.20
2018-12-16T00:28:47.748Z,-0.70
2018-12-16T00:32:50.126Z,-0.80
2018-12-16T00:36:53.313Z,-1.50
2018-12-16T00:40:55.763Z,-0.10
2018-12-16T00:44:58.171Z,0.40
2018-12-16T00:49:00.528Z,-0.80
2018-12-16T00:53:02.940Z,-0.20
2018-12-16T00:57:05.387Z,0.10
2018-12-16T01:01:07.827Z,0.60
2018-12-16T01:05:11.408Z,1.00
2018-12-16T01:09:13.922Z,0.00
2018-12-16T01:13:16.307Z,0.90
2018-12-16T01:17:18.673Z,0.20
2018-12-16T01:21:20.992Z,-0.10
2018-12-16T01:25:23.367Z,0.60
2018-12-16T01:29:25.762Z,1.40
2018-12-16T01:33:28.136Z,0.60
2018-12-16T01:37:30.482Z,0.70
2018-12-16T01:41:32.961Z,1.20
2018-12-16T01:45:35.257Z,0.80
2018-12-16T01:49:37.634Z,0.10
2018-12-16T01:53:39.907Z,1.10
2018-12-16T01:57:42.281Z,0.50
2018-12-16T02:01:50.203Z,0.70
2018-12-16T02:05:52.554Z,-0.20
2018-12-16T02:09:54.940Z,0.90
2018-12-16T02:13:57.281Z,-0.30
2018-12-16T02:17:59.602Z,-0.90
2018-12-16T02:22:01.956Z,-0.50
2018-12-16T02:26:04.310Z,-1.10
2018-12-16T02:30:06.877Z,-0.80
2018-12-16T02:34:09.247Z,-0.80
2018-12-16T02:38:11.558Z,-0.20
2018-12-16T02:42:13.997Z,-0.70
2018-12-16T02:46:16.350Z,0.60
2018-12-16T02:50:18.745Z,0.80
2018-12-16T02:54:21.106Z,0.50
2018-12-16T02:58:23.582Z,0.20
2018-12-16T03:02:25.941Z,-0.20
2018-12-16T03:06:28.228Z,0.00
2018-12-16T03:10:30.552Z,1.10
2018-12-16T03:14:32.866Z,0.00
2018-12-16T03:18:35.235Z,-0.40
2018-12-16T03:22:37.545Z,0.40
2018-12-16T03:26:39.866Z,1.00
2018-12-16T03:30:42.167Z,0.90
2018-12-16T03:34:44.541Z,0.60
2018-12-16T03:38:47.661Z,0.10
2018-12-16T03:42:50.125Z,-0.10
2018-12-16T03:46:52.521Z,0.90
2018-12-16T03:50:54.956Z,2.10
2018-12-16T03:54:57.384Z,1.00
2018-12-16T03:59:15.354Z,1.20
2018-12-16T04:03:17.815Z,0.70
2018-12-16T04:07:20.195Z,0.60
2018-12-16T04:11:22.696Z,-0.10
2018-12-16T04:15:25.294Z,0.40
2018-12-16T04:19:27.880Z,1.10
2018-12-16T04:23:30.194Z,2.10
2018-12-16T04:27:32.500Z,0.50
2018-12-16T04:31:34.865Z,0.20
2018-12-16T04:35:37.210Z,0.50
2018-12-16T04:39:39.481Z,2.10
2018-12-16T04:43:41.816Z,1.20
2018-12-16T04:47:44.207Z,0.80
2018-12-16T04:51:46.549Z,1.80
2018-12-16T04:55:48.937Z,0.50
2018-12-16T04:59:51.286Z,0.90
2018-12-16T05:03:53.637Z,0.20
2018-12-16T05:07:56.094Z,-1.10
2018-12-16T05:11:58.492Z,-1.00
2018-12-16T05:16:00.834Z,-0.50
2018-12-16T05:20:03.651Z,-0.70
2018-12-16T05:24:06.030Z,-0.70
2018-12-16T05:28:08.384Z,0.60
2018-12-16T05:32:10.679Z,0.10
2018-12-16T05:36:13.011Z,0.80
2018-12-16T05:40:15.319Z,-0.30
2018-12-16T05:44:17.655Z,-0.20
2018-12-16T05:48:19.969Z,-1.40
2018-12-16T05:52:22.355Z,0.30
2018-12-16T05:56:24.763Z,-0.70
2018-12-16T06:00:27.092Z,0.10
2018-12-16T06:04:29.408Z,1.00
2018-12-16T06:08:31.935Z,-0.10
2018-12-16T06:12:34.258Z,0.90
2018-12-16T06:16:36.575Z,1.00
2018-12-16T06:20:38.875Z,1.30
2018-12-16T06:24:41.233Z,0.60
2018-12-16T06:28:43.552Z,0.60
2018-12-16T06:32:45.898Z,0.80
2018-12-16T06:36:48.233Z,1.20
2018-12-16T06:40:50.587Z,1.30
2018-12-16T06:44:52.892Z,1.40
2018-12-16T06:48:55.225Z,1.00
2018-12-16T06:52:57.574Z,0.70
2018-12-16T06:56:59.954Z,0.60
2018-12-16T07:01:02.359Z,0.90
2018-12-16T07:05:04.978Z,0.10
2018-12-16T07:09:07.566Z,0.50
2018-12-16T07:13:09.923Z,0.60
2018-12-16T07:17:12.266Z,0.70
2018-12-16T07:21:14.563Z,1.50
2018-12-16T07:25:17.298Z,0.90
2018-12-16T07:29:19.654Z,0.80
2018-12-16T07:33:21.951Z,1.30
2018-12-16T07:37:24.262Z,0.70
2018-12-16T07:41:26.649Z,1.10
2018-12-16T07:45:28.979Z,0.80
2018-12-16T07:49:31.321Z,1.80
2018-12-16T07:53:33.670Z,1.60
2018-12-16T07:57:36.119Z,1.60
2018-12-16T08:01:38.524Z,0.20
2018-12-16T08:05:40.883Z,1.00
2018-12-16T08:09:43.242Z,1.80
2018-12-16T08:13:45.566Z,1.90
2018-12-16T08:17:47.915Z,2.00
2018-12-16T08:21:50.257Z,2.20
2018-12-16T08:25:52.593Z,1.60
2018-12-16T08:29:54.989Z,1.80
2018-12-16T08:33:57.722Z,1.80
2018-12-16T08:38:00.011Z,1.50
2018-12-16T08:42:02.369Z,1.90
2018-12-16T08:46:04.778Z,2.40
2018-12-16T08:50:07.183Z,3.00
2018-12-16T08:54:09.576Z,2.70
2018-12-16T08:58:11.968Z,2.50
2018-12-16T09:02:14.274Z,2.90
2018-12-16T09:06:16.656Z,2.60
2018-12-16T09:10:19.028Z,2.70
2018-12-16T09:14:21.379Z,2.80
2018-12-16T09:18:23.702Z,3.20
2018-12-16T09:22:26.028Z,3.50
2018-12-16T09:26:28.492Z,3.60
2018-12-16T09:30:30.808Z,3.30
2018-12-16T09:34:33.139Z,3.40
2018-12-16T09:38:36.693Z,3.20
2018-12-16T09:42:39.054Z,1.90
2018-12-16T09:46:42.487Z,2.30
2018-12-16T09:50:44.880Z,2.50
2018-12-16T09:54:48.265Z,3.10
2018-12-16T09:58:50.739Z,3.40
2018-12-16T10:02:53.257Z,3.00
2018-12-16T10:06:56.205Z,3.40
2018-12-16T10:10:59.216Z,3.50
2018-12-16T10:15:01.608Z,1.90
2018-12-16T10:19:04.059Z,3.10
2018-12-16T10:23:07.328Z,3.10
2018-12-16T10:27:09.667Z,4.00
2018-12-16T10:31:12.102Z,3.50
2018-12-16T10:35:14.466Z,2.80
2018-12-16T10:39:16.904Z,3.30
2018-12-16T10:43:19.287Z,3.50
2018-12-16T10:47:21.658Z,3.80
2018-12-16T10:51:24.038Z,3.30
2018-12-16T10:55:26.325Z,3.30
2018-12-16T10:59:28.757Z,4.40
2018-12-16T11:03:31.089Z,4.10
2018-12-16T11:07:33.483Z,4.30
2018-12-16T11:11:35.851Z,4.10
2018-12-16T11:15:38.222Z,4.20
2018-12-16T11:19:40.638Z,4.00
2018-12-16T11:23:43.405Z,4.70
2018-12-16T11:27:45.782Z,4.20
2018-12-16T11:31:48.102Z,4.10
2018-12-16T11:35:50.523Z,4.00
2018-12-16T11:39:53.613Z,4.90
2018-12-16T11:43:56.396Z,4.30
2018-12-16T11:47:58.807Z,4.80
2018-12-16T11:52:01.186Z,4.70
2018-12-16T11:56:03.605Z,4.60
2018-12-16T12:00:06.317Z,4.70
2018-12-16T12:04:08.814Z,4.10
2018-12-16T12:08:11.189Z,4.20
2018-12-16T12:12:13.590Z,4.10
2018-12-16T12:16:15.978Z,4.20
2018-12-16T12:20:19.096Z,4.50
2018-12-16T12:24:21.583Z,5.30
2018-12-16T12:28:24.057Z,5.30
2018-12-16T12:32:26.581Z,5.00
2018-12-16T12:36:30.052Z,4.80
2018-12-16T12:40:32.412Z,5.50
2018-12-16T12:44:34.922Z,4.90
2018-12-16T12:48:37.645Z,4.90
2018-12-16T12:52:39.984Z,4.50
2018-12-16T12:56:42.717Z,4.90
2018-12-16T13:00:45.321Z,4.90
2018-12-16T13:04:48.398Z,4.60
2018-12-16T13:08:50.914Z,4.90
2018-12-16T13:12:53.333Z,4.00
2018-12-16T13:16:55.938Z,3.70
2018-12-16T13:20:59.252Z,4.90
2018-12-16T13:25:13.641Z,4.30
2018-12-16T13:29:16.125Z,4.60
2018-12-16T13:33:18.595Z,4.40
2018-12-16T13:37:21.302Z,4.40
2018-12-16T13:41:24.357Z,4.80
2018-12-16T13:45:26.806Z,4.90
2018-12-16T13:49:29.252Z,4.90
2018-12-16T13:53:31.839Z,4.90
2018-12-16T13:57:34.476Z,4.60
2018-12-16T14:01:36.879Z,4.90
2018-12-16T14:05:46.602Z,5.10
2018-12-16T14:09:45.672Z,4.80
2018-12-16T14:13:48.058Z,5.40
2018-12-16T14:17:50.623Z,5.60
2018-12-16T14:21:53.220Z,5.80
2018-12-16T14:25:55.607Z,4.90
2018-12-16T14:29:58.010Z,4.20
2018-12-16T14:34:00.831Z,2.30
2018-12-16T14:38:03.303Z,4.50
2018-12-16T14:42:05.694Z,5.10
2018-12-16T14:46:08.157Z,5.30
2018-12-16T14:50:10.891Z,5.20
2018-12-16T14:54:13.401Z,4.70
2018-12-16T14:58:15.858Z,4.70
2018-12-16T15:02:19.240Z,5.10
2018-12-16T15:06:21.582Z,5.40
2018-12-16T15:10:24.456Z,5.60
2018-12-16T15:14:27.034Z,5.70
2018-12-16T15:18:29.886Z,5.70
2018-12-16T15:22:32.282Z,5.10
2018-12-16T15:26:35.553Z,5.50
2018-12-16T15:30:42.589Z,5.70
2018-12-16T15:34:45.191Z,5.60
2018-12-16T15:38:47.801Z,5.30
2018-12-16T15:42:50.195Z,4.40
2018-12-16T15:46:52.616Z,4.90
2018-12-16T15:50:55.047Z,5.40
2018-12-16T15:54:57.514Z,5.30
2018-12-16T15:58:59.961Z,5.20
2018-12-16T16:03:02.384Z,5.30
2018-12-16T16:07:04.724Z,5.40
2018-12-16T16:11:07.190Z,5.00
2018-12-16T16:15:09.590Z,5.30
2018-12-16T16:19:12.012Z,3.80
2018-12-16T16:23:14.436Z,4.10
2018-12-16T16:27:16.870Z,5.20
2018-12-16T16:31:19.239Z,5.30
2018-12-16T16:35:21.635Z,5.70
2018-12-16T16:39:23.993Z,5.50
2018-12-16T16:43:27.144Z,5.90
2018-12-16T16:47:29.555Z,5.70
2018-12-16T16:51:31.974Z,5.70
2018-12-16T16:55:34.455Z,6.00
2018-12-16T16:59:37.052Z,6.20
2018-12-16T17:03:39.728Z,6.10
2018-12-16T17:07:42.201Z,6.30
2018-12-16T17:11:44.972Z,6.50
2018-12-16T17:15:47.385Z,6.50
2018-12-16T17:19:49.805Z,6.20
2018-12-16T17:23:53.208Z,5.80
2018-12-16T17:27:55.717Z,5.20
2018-12-16T17:31:58.116Z,5.20
2018-12-16T17:36:00.690Z,5.70
2018-12-16T17:40:03.738Z,6.10
2018-12-16T17:44:06.744Z,6.00
2018-12-16T17:48:09.176Z,5.10
2018-12-16T17:52:11.609Z,5.40
2018-12-16T17:56:19.063Z,5.50
2018-12-16T18:00:21.711Z,5.70
2018-12-16T18:04:24.127Z,5.00
2018-12-16T18:08:26.985Z,4.90
2018-12-16T18:12:29.427Z,5.00
2018-12-16T18:16:31.939Z,5.30
2018-12-16T18:20:34.331Z,5.70
2018-12-16T18:24:36.708Z,5.80
2018-12-16T18:28:39.832Z,5.10
2018-12-16T18:32:43.039Z,5.80
2018-12-16T18:36:45.460Z,6.20
2018-12-16T18:40:48.139Z,6.10
2018-12-16T18:44:50.749Z,5.60
2018-12-16T18:48:53.234Z,5.40
2018-12-16T18:52:55.964Z,5.80
2018-12-16T18:56:59.425Z,5.10
2018-12-16T19:01:01.796Z,4.80
2018-12-16T19:05:04.506Z,5.40
2018-12-16T19:09:07.674Z,5.40
2018-12-16T19:13:11.190Z,6.10
2018-12-16T19:17:13.780Z,6.10
2018-12-16T19:21:16.284Z,6.30
2018-12-16T19:25:18.945Z,6.30
2018-12-16T19:29:21.480Z,6.00
2018-12-16T19:33:24.032Z,5.60
2018-12-16T19:37:26.468Z,6.10
2018-12-16T19:41:29.713Z,6.60
2018-12-16T19:45:32.439Z,6.10
2018-12-16T19:49:34.925Z,6.60
2018-12-16T19:53:38.156Z,6.80
2018-12-16T19:57:41.127Z,6.70
2018-12-16T20:01:43.723Z,6.60
2018-12-16T20:06:55.312Z,6.30
2018-12-16T20:10:57.736Z,6.50
2018-12-16T20:15:01.171Z,6.70
2018-12-16T20:19:03.556Z,6.80
2018-12-16T20:23:06.017Z,6.70
2018-12-16T20:27:12.114Z,6.50
2018-12-16T20:31:21.648Z,6.60
2018-12-16T20:35:24.180Z,6.50
2018-12-16T20:39:26.723Z,6.70
2018-12-16T20:43:29.160Z,6.90
2018-12-16T20:47:31.940Z,7.00
2018-12-16T20:51:34.408Z,7.10
2018-12-16T20:55:36.837Z,7.00
2018-12-16T20:59:39.669Z,7.20
2018-12-16T21:03:42.322Z,7.40
2018-12-16T21:07:46.283Z,7.30
2018-12-16T21:11:54.596Z,7.40
2018-12-16T21:16:03.373Z,7.30
2018-12-16T21:20:14.954Z,6.50
2018-12-16T21:24:17.853Z,7.00
2018-12-16T21:28:21.393Z,6.40
2018-12-16T21:32:24.065Z,6.80
2018-12-16T21:36:28.092Z,7.00
2018-12-16T21:40:30.510Z,6.10
2018-12-16T21:44:32.942Z,6.90
2018-12-16T21:48:35.346Z,7.20
2018-12-16T21:52:37.713Z,6.60
2018-12-16T21:56:40.097Z,7.10
2018-12-16T22:00:43.408Z,7.10
2018-12-16T22:04:45.835Z,7.30
2018-12-16T22:08:48.245Z,7.00
2018-12-16T22:12:50.919Z,6.90
2018-12-16T22:16:53.805Z,7.10
2018-12-16T22:20:56.266Z,6.40
2018-12-16T22:24:59.211Z,6.70
2018-12-16T22:29:01.820Z,5.90
2018-12-16T22:33:04.666Z,6.70
2018-12-16T22:37:07.050Z,6.90
2018-12-16T22:41:09.756Z,5.90
2018-12-16T22:45:12.269Z,5.30
2018-12-16T22:49:14.675Z,6.60
2018-12-16T22:53:17.025Z,5.80
2018-12-16T22:57:19.439Z,5.40
2018-12-16T23:01:21.901Z,5.80
2018-12-16T23:05:24.316Z,6.40
2018-12-16T23:09:26.779Z,5.80
2018-12-16T23:13:29.161Z,6.50
2018-12-16T23:17:31.525Z,6.80
2018-12-16T23:21:34.114Z,6.40
2018-12-16T23:25:36.440Z,6.80
2018-12-16T23:29:38.740Z,7.40
2018-12-16T23:33:41.331Z,6.80
2018-12-16T23:37:43.671Z,7.60
2018-12-16T23:41:46.079Z,7.40
2018-12-16T23:45:48.431Z,7.30
2018-12-16T23:49:50.860Z,7.90
2018-12-16T23:53:53.226Z,7.60
2018-12-16T23:58:01.042Z,7.70
